Airfield :







YOU CAN JOIN US ON...

 
LOGIN :

Register | Disclaimer

   EN    FR    IT 

 









Legend :    VFR   Marginal VFR   IFR   Intensive IFR   Very Intensive IFR
Visi :
Ceiling :
>= 8 km
>= 3000ft
5 to 8 km
1000 to 3000 ft
1500m to 5 km
500 to 1000 ft
800 to 1500m
200 to 500 ft
< 800m
< 200 ft
Symbols :   Thunderstorms  Fog  Heavy snow  Heavy precipitations  Wind > 20 kt







- Airport Elevation : 171 ft
- IATA code : KEF


BIKF - Keflavik International

CURRENT METAR :
  • 190000Z 03012KT 9999 FEW039 BKN048 12/10 Q1003

EXPIRED METARs :
  • 182330Z 03014KT 9999 FEW039 SCT061 13/10 Q1003
  • 182300Z 02011KT 9999 FEW039 SCT061 12/11 Q1002
  • 182230Z 02012KT 9999 FEW039 SCT061 13/10 Q1002
  • 182200Z 03015KT 9999 FEW039 SCT056 13/10 Q1002
  • 182130Z 02013KT 9999 FEW039 BKN056 14/10 Q1002
  • 182100Z 01014KT 9999 FEW039 BKN056 15/11 Q1002

TAF TAF BIKF
Valid from the 19 at 00:00 until the 20 at 00:00 UTC


182208Z 1900/2000 03014KT 9999 SCT040 TX15/1912Z TN11/1906Z
No reported NOTAMs for that airfield.



MET'MAP, your aeronautical weather chart ! - Copyright ORBIFLY December 2007 - Disclaimer

ORBIFLY MET'MAP TEAM :

Programming & Development : Alexandra Zaïnal
Concept & Development : Baudouin d'Aumeries
Co-Development & Prog : Marc-Olivier Méhu
Technical & hardware support : Manuel Goepfert

Contact : metmap@orbifly.com




SOURCES & CREDITS :

   NOAA